createdAt,value
2019-02-20T00:04:27.804Z,91.949463
2019-02-20T00:09:50.613Z,92.468262
2019-02-20T00:15:13.313Z,92.675781
2019-02-20T00:20:36.134Z,92.883301
2019-02-20T00:25:59.037Z,92.883301
2019-02-20T00:31:21.731Z,93.188477
2019-02-20T00:36:44.425Z,93.54248
2019-02-20T00:42:07.082Z,93.64624
2019-02-20T00:47:29.738Z,93.64624
2019-02-20T00:52:52.485Z,94.006348
2019-02-20T00:58:15.248Z,94.671631
2019-02-20T01:03:38.805Z,95.233154
2019-02-20T01:09:01.569Z,95.172119
2019-02-20T01:14:25.272Z,96.105957
2019-02-20T01:19:47.999Z,96.148682
2019-02-20T01:25:11.495Z,96.777344
2019-02-20T01:30:34.208Z,96.466064
2019-02-20T01:35:56.922Z,97.088623
2019-02-20T01:41:19.614Z,96.936035
2019-02-20T01:46:42.292Z,96.936035
2019-02-20T01:52:05.152Z,97.30835
2019-02-20T01:57:28.116Z,97.10083
2019-02-20T02:02:51.090Z,96.99707
2019-02-20T02:08:13.918Z,96.643066
2019-02-20T02:13:36.851Z,96.435547
2019-02-20T02:18:59.651Z,96.435547
2019-02-20T02:24:22.367Z,96.435547
2019-02-20T02:29:45.146Z,96.228027
2019-02-20T02:35:08.081Z,96.789551
2019-02-20T02:40:31.090Z,96.643066
2019-02-20T02:45:53.856Z,96.478271
2019-02-20T02:51:16.668Z,96.582031
2019-02-20T02:56:39.403Z,96.374512
2019-02-20T03:02:02.198Z,95.959473
2019-02-20T03:07:25.327Z,95.855713
2019-02-20T03:12:49.026Z,95.855713
2019-02-20T03:18:11.994Z,95.648193
2019-02-20T03:23:40.093Z,95.751953
2019-02-20T03:28:57.923Z,96.166992
2019-02-20T03:34:20.677Z,96.270752
2019-02-20T03:39:43.478Z,96.374512
2019-02-20T03:45:06.257Z,96.582031
2019-02-20T03:50:29.094Z,96.789551
2019-02-20T03:55:51.769Z,96.99707
2019-02-20T04:01:14.793Z,97.143555
2019-02-20T04:06:37.602Z,96.99707
2019-02-20T04:12:00.558Z,96.685791
2019-02-20T04:17:23.177Z,96.789551
2019-02-20T04:22:46.741Z,96.893311
2019-02-20T04:28:09.621Z,96.685791
2019-02-20T04:33:32.387Z,96.832275
2019-02-20T04:38:56.696Z,96.936035
2019-02-20T04:44:19.392Z,96.936035
2019-02-20T04:49:42.589Z,96.832275
2019-02-20T04:55:05.297Z,96.936035
2019-02-20T05:00:28.390Z,96.832275
2019-02-20T05:05:51.378Z,96.881104
2019-02-20T05:11:14.402Z,96.673584
2019-02-20T05:16:37.377Z,97.131348
2019-02-20T05:22:00.370Z,97.753906
2019-02-20T05:27:23.111Z,97.961426
2019-02-20T05:32:45.936Z,98.065186
2019-02-20T05:38:08.744Z,98.168945
2019-02-20T05:43:31.660Z,98.693848
2019-02-20T05:48:54.687Z,98.217773
2019-02-20T05:54:17.800Z,98.840332
2019-02-20T05:59:41.884Z,99.005127
2019-02-20T06:05:04.949Z,99.108887
2019-02-20T06:10:27.795Z,99.212646
2019-02-20T06:15:50.816Z,98.901367
2019-02-20T06:21:13.559Z,99.267578
2019-02-20T06:26:36.274Z,99.432373
2019-02-20T06:31:58.993Z,99.072266
2019-02-20T06:37:21.876Z,98.760986
2019-02-20T06:42:44.642Z,98.095703
2019-02-20T06:48:07.405Z,97.576904
2019-02-20T06:53:30.260Z,97.265625
2019-02-20T06:58:52.953Z,97.265625
2019-02-20T07:04:16.711Z,97.119141
2019-02-20T07:09:39.443Z,96.600342
2019-02-20T07:15:02.211Z,96.289062
2019-02-20T07:20:24.936Z,95.666504
2019-02-20T07:25:47.761Z,94.891357
2019-02-20T07:31:10.591Z,94.372559
2019-02-20T07:36:33.457Z,94.268799
2019-02-20T07:41:56.284Z,93.603516
2019-02-20T07:47:19.083Z,93.292236
2019-02-20T07:52:41.801Z,92.938232
2019-02-20T07:58:04.575Z,92.529297
2019-02-20T08:03:29.468Z,92.590332
2019-02-20T08:08:51.143Z,92.279053
2019-02-20T08:14:14.081Z,91.51001
2019-02-20T08:19:36.774Z,91.156006
2019-02-20T08:24:59.535Z,90.637207
2019-02-20T08:30:22.395Z,89.355469
2019-02-20T08:35:45.109Z,88.17749
2019-02-20T08:41:08.318Z,87.664795
2019-02-20T08:46:32.723Z,86.791992
2019-02-20T08:51:55.780Z,85.723877
2019-02-20T08:57:18.512Z,85.168457
2019-02-20T09:02:42.440Z,84.094238
2019-02-20T09:08:14.372Z,83.581543
2019-02-20T09:13:37.372Z,81.787109
2019-02-20T09:19:00.406Z,82.098389
2019-02-20T09:24:23.236Z,79.79126
2019-02-20T09:29:46.090Z,80.059814
2019-02-20T09:35:08.831Z,78.619385
2019-02-20T09:40:31.703Z,77.246094
2019-02-20T09:45:54.504Z,77.722168
2019-02-20T09:51:17.166Z,78.613281
2019-02-20T09:56:39.811Z,73.193359
2019-02-20T10:02:03.552Z,73.266602
2019-02-20T10:07:27.468Z,72.717285
2019-02-20T10:12:50.157Z,72.338867
2019-02-20T10:18:12.923Z,72.271729
2019-02-20T10:23:35.557Z,71.624756
2019-02-20T10:28:58.414Z,69.909668
2019-02-20T10:34:21.104Z,69.805908
2019-02-20T10:39:43.833Z,69.842529
2019-02-20T10:45:06.589Z,68.615723
2019-02-20T10:50:29.346Z,68.511963
2019-02-20T10:55:52.291Z,67.279053
2019-02-20T11:01:14.995Z,67.657471
2019-02-20T11:06:37.684Z,68.414307
2019-02-20T11:12:00.407Z,64.556885
2019-02-20T11:17:23.040Z,65.679932
2019-02-20T11:22:45.926Z,65.930176
2019-02-20T11:28:08.651Z,63.604736
2019-02-20T11:33:31.582Z,62.493896
2019-02-20T11:38:55.252Z,61.669922
2019-02-20T11:44:20.911Z,62.902832
2019-02-20T11:49:40.702Z,63.336182
2019-02-20T11:55:03.432Z,61.669922
2019-02-20T12:00:26.102Z,62.518311
2019-02-20T12:05:48.795Z,62.518311
2019-02-20T12:11:11.625Z,62.390137
2019-02-20T12:16:34.374Z,63.543701
2019-02-20T12:21:57.123Z,62.799072
2019-02-20T12:27:20.900Z,63.238525
2019-02-20T12:32:43.576Z,62.286377
2019-02-20T12:38:06.305Z,60.174561
2019-02-20T12:43:29.002Z,57.952881
2019-02-20T12:48:51.698Z,60.101318
2019-02-20T12:54:14.354Z,61.413574
2019-02-20T12:59:37.222Z,61.791992
2019-02-20T13:04:59.995Z,62.200928
2019-02-20T13:10:22.749Z,63.043213
2019-02-20T13:15:45.405Z,63.018799
2019-02-20T13:21:11.023Z,62.915039
2019-02-20T13:26:32.554Z,63.659668
2019-02-20T13:31:55.283Z,64.343262
2019-02-20T13:37:18.029Z,60.406494
2019-02-20T13:42:40.641Z,62.139893
2019-02-20T13:48:05.154Z,60.742188
2019-02-20T13:53:27.879Z,60.760498
2019-02-20T13:58:50.601Z,61.602783
2019-02-20T14:04:14.415Z,63.043213
2019-02-20T14:09:37.234Z,63.482666
2019-02-20T14:14:59.951Z,63.586426
2019-02-20T14:20:22.650Z,66.040039
2019-02-20T14:25:45.495Z,64.709473
2019-02-20T14:31:08.203Z,63.555908
2019-02-20T14:36:30.852Z,62.976074
2019-02-20T14:41:53.565Z,62.432861
2019-02-20T14:47:17.328Z,63.793945
2019-02-20T14:52:39.937Z,64.404297
2019-02-20T14:58:03.634Z,64.227295
2019-02-20T15:03:26.418Z,64.227295
2019-02-20T15:08:49.114Z,64.569092
2019-02-20T15:14:11.841Z,64.086914
2019-02-20T15:19:34.564Z,65.240479
2019-02-20T15:24:57.729Z,66.05835
2019-02-20T15:30:20.469Z,65.240479
2019-02-20T15:35:43.144Z,66.674805
2019-02-20T15:41:05.861Z,67.1875
2019-02-20T15:46:28.642Z,66.265869
2019-02-20T15:51:51.377Z,65.753174
2019-02-20T15:57:15.010Z,64.697266
2019-02-20T16:02:37.737Z,64.39209
2019-02-20T16:08:00.520Z,64.697266
2019-02-20T16:13:23.245Z,65.344238
2019-02-20T16:18:45.988Z,66.882324
2019-02-20T16:24:08.733Z,68.450928
2019-02-20T16:29:31.507Z,67.626953
2019-02-20T16:35:04.278Z,68.170166
2019-02-20T16:40:27.073Z,70.019531
2019-02-20T16:45:50.348Z,69.0979
2019-02-20T16:51:13.169Z,69.299316
2019-02-20T16:56:35.886Z,69.641113
2019-02-20T17:01:58.600Z,69.744873
2019-02-20T17:07:21.320Z,70.050049
2019-02-20T17:12:44.075Z,70.361328
2019-02-20T17:18:06.898Z,70.495605
2019-02-20T17:23:29.743Z,70.904541
2019-02-20T17:28:52.475Z,71.008301
2019-02-20T17:34:16.160Z,71.929932
2019-02-20T17:39:38.881Z,71.966553
2019-02-20T17:45:02.377Z,71.447754
2019-02-20T17:50:25.162Z,72.479248
2019-02-20T17:55:48.192Z,71.551514
2019-02-20T18:01:10.918Z,72.30835
2019-02-20T18:06:34.593Z,72.821045
2019-02-20T18:11:57.385Z,72.20459
2019-02-20T18:17:21.309Z,71.99707
2019-02-20T18:22:44.052Z,71.893311
2019-02-20T18:28:06.841Z,72.546387
2019-02-20T18:33:29.683Z,74.42627
2019-02-20T18:38:52.603Z,74.151611
2019-02-20T18:44:16.305Z,74.56665
2019-02-20T18:49:39.243Z,76.141357
2019-02-20T18:55:05.706Z,77.789307
2019-02-20T19:00:34.317Z,77.105713
2019-02-20T19:05:57.364Z,77.929688
2019-02-20T19:11:20.948Z,78.442383
2019-02-20T19:16:44.992Z,78.479004
2019-02-20T19:22:06.670Z,77.758789
2019-02-20T19:27:30.093Z,75.769043
2019-02-20T19:32:53.722Z,75.250244
2019-02-20T19:38:16.407Z,76.177979
2019-02-20T19:43:39.161Z,75.970459
2019-02-20T19:49:01.870Z,76.727295
2019-02-20T19:54:24.588Z,76.11084
2019-02-20T19:59:47.393Z,73.809814
2019-02-20T20:05:10.422Z,73.260498
2019-02-20T20:10:33.200Z,74.017334
2019-02-20T20:15:56.101Z,74.328613
2019-02-20T20:21:19.156Z,74.530029
2019-02-20T20:26:42.303Z,75.152588
2019-02-20T20:32:05.413Z,74.053955
2019-02-20T20:37:30.079Z,74.462891
2019-02-20T20:42:53.316Z,74.908447
2019-02-20T20:48:16.275Z,75.323486
2019-02-20T20:53:39.103Z,76.763916
2019-02-20T20:59:02.136Z,77.764893
2019-02-20T21:04:26.084Z,78.381348
2019-02-20T21:09:48.995Z,78.692627
2019-02-20T21:15:11.983Z,80.004883
2019-02-20T21:20:35.026Z,81.140137
2019-02-20T21:25:57.904Z,82.348633
2019-02-20T21:31:20.789Z,83.978271
2019-02-20T21:36:43.747Z,83.978271
2019-02-20T21:42:05.690Z,85.26001
2019-02-20T21:47:28.535Z,85.50415
2019-02-20T21:52:51.699Z,86.541748
2019-02-20T21:58:14.888Z,86.682129
2019-02-20T22:03:37.952Z,88.38501
2019-02-20T22:09:00.725Z,88.62915
2019-02-20T22:14:23.457Z,88.94043
2019-02-20T22:19:46.274Z,89.251709
2019-02-20T22:25:09.053Z,88.793945
2019-02-20T22:30:31.941Z,88.73291
2019-02-20T22:35:54.614Z,88.317871
2019-02-20T22:41:17.506Z,89.605713
2019-02-20T22:46:40.362Z,89.813232
2019-02-20T22:52:03.163Z,89.770508
2019-02-20T22:57:25.989Z,90.393066
2019-02-20T23:02:48.675Z,89.727783
2019-02-20T23:08:11.362Z,89.581299
2019-02-20T23:13:34.082Z,88.61084
2019-02-20T23:18:56.811Z,88.15918
2019-02-20T23:24:19.622Z,88.568115
2019-02-20T23:29:42.370Z,88.464355
2019-02-20T23:35:05.018Z,87.95166
2019-02-20T23:40:27.897Z,89.233398
2019-02-20T23:45:50.424Z,89.959717
2019-02-20T23:51:13.110Z,90.618896
2019-02-20T23:56:35.825Z,90.264893
